createdAt,value
2018-07-21T00:00:32.624Z,1.70
2018-07-21T00:03:01.136Z,1.80
2018-07-21T00:05:29.626Z,1.80
2018-07-21T00:07:58.208Z,1.90
2018-07-21T00:10:26.671Z,1.87
2018-07-21T00:12:55.173Z,1.90
2018-07-21T00:15:23.659Z,1.90
2018-07-21T00:17:52.152Z,1.80
2018-07-21T00:20:20.644Z,2.20
2018-07-21T00:22:49.180Z,1.57
2018-07-21T00:25:17.665Z,1.60
2018-07-21T00:27:46.181Z,2.30
2018-07-21T00:30:14.668Z,2.05
2018-07-21T00:32:43.176Z,3.87
2018-07-21T00:35:11.651Z,2.93
2018-07-21T00:37:40.215Z,2.00
2018-07-21T00:40:08.737Z,1.70
2018-07-21T00:42:37.284Z,1.67
2018-07-21T00:45:05.779Z,2.43
2018-07-21T00:47:34.657Z,3.03
2018-07-21T00:50:04.808Z,2.00
2018-07-21T00:52:33.299Z,3.67
2018-07-21T00:55:01.812Z,1.50
2018-07-21T00:57:30.318Z,2.00
2018-07-21T00:59:58.807Z,1.90
2018-07-21T01:02:27.318Z,2.60
2018-07-21T01:04:55.856Z,2.00
2018-07-21T01:07:24.448Z,2.13
2018-07-21T01:09:52.944Z,2.70
2018-07-21T01:12:21.456Z,2.07
2018-07-21T01:14:49.956Z,1.63
2018-07-21T01:17:18.480Z,3.23
2018-07-21T01:19:46.962Z,2.00
2018-07-21T01:22:15.504Z,2.10
2018-07-21T01:24:44.089Z,1.77
2018-07-21T01:27:12.600Z,2.30
2018-07-21T01:29:41.120Z,4.03
2018-07-21T01:32:09.688Z,2.98
2018-07-21T01:34:38.216Z,3.30
2018-07-21T01:37:06.765Z,2.60
2018-07-21T01:39:35.271Z,2.90
2018-07-21T01:42:04.083Z,2.12
2018-07-21T01:44:32.615Z,2.77
2018-07-21T01:47:01.101Z,2.20
2018-07-21T01:49:29.623Z,1.90
2018-07-21T01:51:58.123Z,1.70
2018-07-21T01:54:26.656Z,4.13
2018-07-21T01:56:55.142Z,2.27
2018-07-21T01:59:23.623Z,3.37
2018-07-21T02:01:52.129Z,2.73
2018-07-21T02:04:20.646Z,2.80
2018-07-21T02:06:49.126Z,2.13
2018-07-21T02:09:17.630Z,2.97
2018-07-21T02:11:46.116Z,2.33
2018-07-21T02:14:14.594Z,3.37
2018-07-21T02:16:43.077Z,2.50
2018-07-21T02:19:11.598Z,3.43
2018-07-21T02:21:40.113Z,4.67
2018-07-21T02:24:08.644Z,3.53
2018-07-21T02:26:37.158Z,3.77
2018-07-21T02:29:05.767Z,3.53
2018-07-21T02:31:34.330Z,3.70
2018-07-21T02:34:03.571Z,3.57
2018-07-21T02:36:32.105Z,3.90
2018-07-21T02:39:00.619Z,3.93
2018-07-21T02:41:29.107Z,3.90
2018-07-21T02:43:57.655Z,3.60
2018-07-21T02:46:26.177Z,3.90
2018-07-21T02:48:54.696Z,3.20
2018-07-21T02:51:23.194Z,3.67
2018-07-21T02:53:51.672Z,2.60
2018-07-21T02:56:20.192Z,3.17
2018-07-21T02:58:48.682Z,3.10
2018-07-21T03:01:17.204Z,3.57
2018-07-21T03:03:45.711Z,3.33
2018-07-21T03:06:14.212Z,3.35
2018-07-21T03:08:42.753Z,2.73
2018-07-21T03:11:11.270Z,2.20
2018-07-21T03:13:39.774Z,3.43
2018-07-21T03:16:08.321Z,2.80
2018-07-21T03:18:36.931Z,2.73
2018-07-21T03:21:05.460Z,3.43
2018-07-21T03:23:34.292Z,2.30
2018-07-21T03:26:02.832Z,3.70
2018-07-21T03:28:31.331Z,2.93
2018-07-21T03:30:59.835Z,3.00
2018-07-21T03:33:28.319Z,3.40
2018-07-21T03:35:56.826Z,3.87
2018-07-21T03:38:25.324Z,2.60
2018-07-21T03:40:54.203Z,3.37
2018-07-21T03:43:22.660Z,3.70
2018-07-21T03:45:51.192Z,2.53
2018-07-21T03:48:19.682Z,3.00
2018-07-21T03:50:48.194Z,2.80
2018-07-21T03:53:16.729Z,2.50
2018-07-21T03:55:45.210Z,2.60
2018-07-21T03:58:13.732Z,2.53
2018-07-21T04:00:42.244Z,2.20
2018-07-21T04:03:10.773Z,3.30
2018-07-21T04:05:39.298Z,3.13
2018-07-21T04:08:07.779Z,3.07
2018-07-21T04:10:36.278Z,3.00
2018-07-21T04:13:04.898Z,2.77
2018-07-21T04:15:33.442Z,3.37
2018-07-21T04:18:01.930Z,3.47
2018-07-21T04:20:30.485Z,2.70
2018-07-21T04:22:58.995Z,2.37
2018-07-21T04:25:27.499Z,2.30
2018-07-21T04:27:55.966Z,2.30
2018-07-21T04:30:24.492Z,2.60
2018-07-21T04:32:52.967Z,2.40
2018-07-21T04:35:21.463Z,2.23
2018-07-21T04:37:49.953Z,2.63
2018-07-21T04:40:18.474Z,2.07
2018-07-21T04:42:47.003Z,2.93
2018-07-21T04:45:15.514Z,2.80
2018-07-21T04:47:44.024Z,3.57
2018-07-21T04:50:12.583Z,2.83
2018-07-21T04:52:41.206Z,2.87
2018-07-21T04:55:09.690Z,2.65
2018-07-21T04:57:38.188Z,3.70
2018-07-21T05:00:06.734Z,2.37
2018-07-21T05:02:35.227Z,2.63
2018-07-21T05:05:04.396Z,4.15
2018-07-21T05:07:33.009Z,4.50
2018-07-21T05:10:01.431Z,3.70
2018-07-21T05:12:29.999Z,2.43
2018-07-21T05:14:58.510Z,3.33
2018-07-21T05:17:27.000Z,3.07
2018-07-21T05:19:55.486Z,3.20
2018-07-21T05:22:24.076Z,2.70
2018-07-21T05:24:52.554Z,3.93
2018-07-21T05:27:21.067Z,3.33
2018-07-21T05:29:49.603Z,3.57
2018-07-21T05:32:18.091Z,4.33
2018-07-21T05:34:46.596Z,3.30
2018-07-21T05:37:15.148Z,4.03
2018-07-21T05:39:43.634Z,2.62
2018-07-21T05:42:12.128Z,2.70
2018-07-21T05:44:40.669Z,2.83
2018-07-21T05:47:09.176Z,3.97
2018-07-21T05:49:37.693Z,3.43
2018-07-21T05:52:06.230Z,4.57
2018-07-21T05:54:34.743Z,3.97
2018-07-21T05:57:03.970Z,3.83
2018-07-21T05:59:32.456Z,3.50
2018-07-21T06:02:00.952Z,3.53
2018-07-21T06:04:29.454Z,3.27
2018-07-21T06:06:57.963Z,3.03
2018-07-21T06:09:26.569Z,3.63
2018-07-21T06:11:55.087Z,3.10
2018-07-21T06:14:23.598Z,2.67
2018-07-21T06:16:52.098Z,3.13
2018-07-21T06:19:20.647Z,2.87
2018-07-21T06:21:49.158Z,3.50
2018-07-21T06:24:17.704Z,4.27
2018-07-21T06:26:46.445Z,4.70
2018-07-21T06:29:15.046Z,3.80
2018-07-21T06:31:43.560Z,3.70
2018-07-21T06:34:12.060Z,3.43
2018-07-21T06:36:40.705Z,4.47
2018-07-21T06:39:11.146Z,3.57
2018-07-21T06:41:39.939Z,3.50
2018-07-21T06:44:08.742Z,4.17
2018-07-21T06:46:37.341Z,4.17
2018-07-21T06:49:06.139Z,3.03
2018-07-21T06:51:34.658Z,3.73
2018-07-21T06:54:04.031Z,2.67
2018-07-21T06:56:32.579Z,4.50
2018-07-21T06:59:01.132Z,3.33
2018-07-21T07:01:29.632Z,3.50
2018-07-21T07:03:58.123Z,2.93
2018-07-21T07:06:26.910Z,3.80
2018-07-21T07:08:55.561Z,3.50
2018-07-21T07:11:24.593Z,4.90
2018-07-21T07:13:53.182Z,3.80
2018-07-21T07:16:22.581Z,3.20
2018-07-21T07:18:51.785Z,4.37
2018-07-21T07:21:20.289Z,4.23
2018-07-21T07:23:48.928Z,4.40
2018-07-21T07:26:17.695Z,3.97
2018-07-21T07:28:46.579Z,4.50
2018-07-21T07:31:16.654Z,3.70
2018-07-21T07:33:46.320Z,5.10
2018-07-21T07:36:15.148Z,4.10
2018-07-21T07:38:44.129Z,4.40
2018-07-21T07:41:12.957Z,4.45
2018-07-21T07:43:41.892Z,3.90
2018-07-21T07:46:10.851Z,4.20
2018-07-21T07:48:40.209Z,3.57
2018-07-21T07:51:09.045Z,4.73
2018-07-21T07:53:38.129Z,3.20
2018-07-21T07:56:06.952Z,3.53
2018-07-21T07:58:35.865Z,3.40
2018-07-21T08:01:04.693Z,3.77
2018-07-21T08:03:33.616Z,4.13
2018-07-21T08:06:02.710Z,4.30
2018-07-21T08:08:31.654Z,4.80
2018-07-21T08:11:00.451Z,3.07
2018-07-21T08:13:29.288Z,3.73
2018-07-21T08:15:57.883Z,3.43
2018-07-21T08:18:26.620Z,3.10
2018-07-21T08:20:55.770Z,3.50
2018-07-21T08:23:24.612Z,4.58
2018-07-21T08:25:53.487Z,5.77
2018-07-21T08:28:22.317Z,5.53
2018-07-21T08:30:51.240Z,5.30
2018-07-21T08:33:20.109Z,5.83
2018-07-21T08:35:48.996Z,3.40
2018-07-21T08:38:17.923Z,5.58
2018-07-21T08:40:46.784Z,5.30
2018-07-21T08:43:15.634Z,5.43
2018-07-21T08:45:44.536Z,4.30
2018-07-21T08:48:13.407Z,4.20
2018-07-21T08:50:42.410Z,4.80
2018-07-21T08:53:11.247Z,3.95
2018-07-21T08:55:40.313Z,4.90
2018-07-21T08:58:09.116Z,4.33
2018-07-21T09:00:38.433Z,4.30
2018-07-21T09:03:07.334Z,3.87
2018-07-21T09:05:36.191Z,4.20
2018-07-21T09:08:05.119Z,4.17
2018-07-21T09:10:33.989Z,4.67
2018-07-21T09:13:02.975Z,5.80
2018-07-21T09:15:31.815Z,4.20
2018-07-21T09:18:00.712Z,5.83
2018-07-21T09:20:29.830Z,4.63
2018-07-21T09:22:58.683Z,3.93
2018-07-21T09:25:27.530Z,5.33
2018-07-21T09:27:56.421Z,5.33
2018-07-21T09:30:25.613Z,5.40
2018-07-21T09:32:54.432Z,4.20
2018-07-21T09:35:23.300Z,4.07
2018-07-21T09:37:52.207Z,4.20
2018-07-21T09:40:21.963Z,4.40
2018-07-21T09:42:50.847Z,4.17
2018-07-21T09:45:19.672Z,4.27
2018-07-21T09:47:49.243Z,3.70
2018-07-21T09:50:18.582Z,4.10
2018-07-21T09:52:47.484Z,4.47
2018-07-21T09:55:16.297Z,4.40
2018-07-21T09:57:45.157Z,3.47
2018-07-21T10:00:18.217Z,4.23
2018-07-21T10:02:47.052Z,4.20
2018-07-21T10:05:15.912Z,4.17
2018-07-21T10:07:44.762Z,4.37
2018-07-21T10:10:13.576Z,3.20
2018-07-21T10:12:42.792Z,3.60
2018-07-21T10:15:11.633Z,3.57
2018-07-21T10:17:40.572Z,3.43
2018-07-21T10:20:09.224Z,4.40
2018-07-21T10:22:37.968Z,3.70
2018-07-21T10:25:12.268Z,3.43
2018-07-21T10:27:46.547Z,3.90
2018-07-21T10:30:15.512Z,3.57
2018-07-21T10:32:44.363Z,3.87
2018-07-21T10:35:13.238Z,3.60
2018-07-21T10:37:42.102Z,3.73
2018-07-21T10:40:11.864Z,3.22
2018-07-21T10:42:40.697Z,3.37
2018-07-21T10:45:09.667Z,3.67
2018-07-21T10:47:38.716Z,4.20
2018-07-21T10:50:07.681Z,3.83
2018-07-21T10:52:36.564Z,4.10
2018-07-21T10:55:05.427Z,3.97
2018-07-21T10:57:34.258Z,4.33
2018-07-21T11:00:03.160Z,3.83
2018-07-21T11:02:35.892Z,4.17
2018-07-21T11:05:05.781Z,3.50
2018-07-21T11:07:34.681Z,4.30
2018-07-21T11:10:03.565Z,3.83
2018-07-21T11:12:32.415Z,3.80
2018-07-21T11:15:01.279Z,3.50
2018-07-21T11:17:30.187Z,3.80
2018-07-21T11:19:59.040Z,3.77
2018-07-21T11:22:27.902Z,3.77
2018-07-21T11:24:56.721Z,3.50
2018-07-21T11:27:25.584Z,3.77
2018-07-21T11:29:54.928Z,4.03
2018-07-21T11:32:23.825Z,3.67
2018-07-21T11:34:52.741Z,3.63
2018-07-21T11:37:21.941Z,3.57
2018-07-21T11:39:51.520Z,3.50
2018-07-21T11:42:20.465Z,3.37
2018-07-21T11:44:49.389Z,3.10
2018-07-21T11:47:18.249Z,3.83
2018-07-21T11:49:47.122Z,3.53
2018-07-21T11:52:16.016Z,3.07
2018-07-21T11:54:45.058Z,4.07
2018-07-21T11:57:13.921Z,3.60
2018-07-21T11:59:42.826Z,3.40
2018-07-21T12:02:11.699Z,4.03
2018-07-21T12:04:40.605Z,3.40
2018-07-21T12:07:09.503Z,3.30
2018-07-21T12:09:38.415Z,3.27
2018-07-21T12:12:07.314Z,2.83
2018-07-21T12:14:36.184Z,3.33
2018-07-21T12:17:05.726Z,2.93
2018-07-21T12:19:34.609Z,2.93
2018-07-21T12:22:03.541Z,3.10
2018-07-21T12:24:32.412Z,3.30
2018-07-21T12:27:01.245Z,3.40
2018-07-21T12:29:30.124Z,3.33
2018-07-21T12:31:58.977Z,2.90
2018-07-21T12:34:27.834Z,3.17
2018-07-21T12:36:56.739Z,3.20
2018-07-21T12:39:25.647Z,3.10
2018-07-21T12:41:54.583Z,3.00
2018-07-21T12:44:23.421Z,2.93
2018-07-21T12:46:52.264Z,3.23
2018-07-21T12:49:21.963Z,3.13
2018-07-21T12:51:50.827Z,3.00
2018-07-21T12:54:19.721Z,3.80
2018-07-21T12:56:48.605Z,3.97
2018-07-21T12:59:17.541Z,3.50
2018-07-21T13:01:46.400Z,3.67
2018-07-21T13:04:15.235Z,3.77
2018-07-21T13:06:44.173Z,3.40
2018-07-21T13:09:13.268Z,3.40
2018-07-21T13:11:42.502Z,3.60
2018-07-21T13:14:11.741Z,3.93
2018-07-21T13:16:40.565Z,3.47
2018-07-21T13:19:09.440Z,3.03
2018-07-21T13:21:38.289Z,3.70
2018-07-21T13:24:07.147Z,3.53
2018-07-21T13:26:36.550Z,3.30
2018-07-21T13:29:05.381Z,3.23
2018-07-21T13:31:34.284Z,3.40
2018-07-21T13:34:03.416Z,4.17
2018-07-21T13:36:32.547Z,4.30
2018-07-21T13:39:01.442Z,4.53
2018-07-21T13:41:30.279Z,3.60
2018-07-21T13:43:59.127Z,3.60
2018-07-21T13:46:27.993Z,3.40
2018-07-21T13:48:56.913Z,3.30
2018-07-21T13:51:25.801Z,3.60
2018-07-21T13:53:54.743Z,3.60
2018-07-21T13:56:23.561Z,3.53
2018-07-21T13:58:52.371Z,3.30
2018-07-21T14:01:21.249Z,3.40
2018-07-21T14:03:50.476Z,3.40
2018-07-21T14:06:19.357Z,3.83
2018-07-21T14:08:48.230Z,3.40
2018-07-21T14:11:17.157Z,3.37
2018-07-21T14:13:45.992Z,3.40
2018-07-21T14:16:14.848Z,3.53
2018-07-21T14:18:43.706Z,3.40
2018-07-21T14:21:12.678Z,3.33
2018-07-21T14:23:41.560Z,3.50
2018-07-21T14:26:10.479Z,3.72
2018-07-21T14:28:39.345Z,3.43
2018-07-21T14:31:08.184Z,3.70
2018-07-21T14:33:37.041Z,4.10
2018-07-21T14:36:06.311Z,3.90
2018-07-21T14:38:35.128Z,4.10
2018-07-21T14:41:04.973Z,4.13
2018-07-21T14:43:33.865Z,3.87
2018-07-21T14:46:04.111Z,3.50
2018-07-21T14:48:35.299Z,4.83
2018-07-21T14:51:05.279Z,3.42
2018-07-21T14:53:34.736Z,3.30
2018-07-21T14:56:03.887Z,3.70
2018-07-21T14:58:32.911Z,4.00
2018-07-21T15:01:01.897Z,3.40
2018-07-21T15:03:30.794Z,3.77
2018-07-21T15:05:59.679Z,4.40
2018-07-21T15:08:28.595Z,4.10
2018-07-21T15:10:57.797Z,3.70
2018-07-21T15:13:26.981Z,3.77
2018-07-21T15:15:55.881Z,3.77
2018-07-21T15:18:24.751Z,4.00
2018-07-21T15:20:54.238Z,3.90
2018-07-21T15:23:23.105Z,3.93
2018-07-21T15:25:52.027Z,3.60
2018-07-21T15:28:20.963Z,3.43
2018-07-21T15:30:49.827Z,3.73
2018-07-21T15:33:18.847Z,3.90
2018-07-21T15:35:47.869Z,4.40
2018-07-21T15:38:16.771Z,4.10
2018-07-21T15:40:46.389Z,3.80
2018-07-21T15:43:16.274Z,4.03
2018-07-21T15:45:45.849Z,3.83
2018-07-21T15:48:14.783Z,4.00
2018-07-21T15:50:44.448Z,3.60
2018-07-21T15:53:13.372Z,3.80
2018-07-21T15:55:43.127Z,3.43
2018-07-21T15:58:14.818Z,4.00
2018-07-21T16:00:43.883Z,3.57
2018-07-21T16:03:12.882Z,3.57
2018-07-21T16:05:41.841Z,3.90
2018-07-21T16:08:10.471Z,3.63
2018-07-21T16:10:39.252Z,3.57
2018-07-21T16:13:08.139Z,3.90
2018-07-21T16:15:37.048Z,3.67
2018-07-21T16:18:06.117Z,4.63
2018-07-21T16:20:35.031Z,3.87
2018-07-21T16:23:05.021Z,4.25
2018-07-21T16:25:33.904Z,3.80
2018-07-21T16:28:02.846Z,3.97
2018-07-21T16:30:31.718Z,3.93
2018-07-21T16:33:00.680Z,4.03
2018-07-21T16:35:29.553Z,4.20
2018-07-21T16:37:58.441Z,3.67
2018-07-21T16:40:28.049Z,4.47
2018-07-21T16:42:56.906Z,4.43
2018-07-21T16:45:25.760Z,4.30
2018-07-21T16:47:54.665Z,5.40
2018-07-21T16:50:23.727Z,4.30
2018-07-21T16:52:52.593Z,4.67
2018-07-21T16:55:22.288Z,5.97
2018-07-21T16:57:51.513Z,4.53
2018-07-21T17:00:20.336Z,4.63
2018-07-21T17:02:49.575Z,5.43
2018-07-21T17:05:18.399Z,4.95
2018-07-21T17:07:47.267Z,5.27
2018-07-21T17:10:16.150Z,5.27
2018-07-21T17:12:45.469Z,5.00
2018-07-21T17:15:14.321Z,5.23
2018-07-21T17:17:43.503Z,4.50
2018-07-21T17:20:12.396Z,4.90
2018-07-21T17:22:41.672Z,4.53
2018-07-21T17:25:10.604Z,4.67
2018-07-21T17:27:39.451Z,4.77
2018-07-21T17:30:08.385Z,4.77
2018-07-21T17:32:37.164Z,4.67
2018-07-21T17:35:06.341Z,4.70
2018-07-21T17:37:35.386Z,4.90
2018-07-21T17:40:04.697Z,5.40
2018-07-21T17:42:33.745Z,5.23
2018-07-21T17:45:02.622Z,4.77
2018-07-21T17:47:32.480Z,4.73
2018-07-21T17:50:01.331Z,4.90
2018-07-21T17:52:30.168Z,4.83
2018-07-21T17:54:59.060Z,4.50
2018-07-21T17:57:27.905Z,4.83
2018-07-21T17:59:56.784Z,4.50
2018-07-21T18:02:25.652Z,5.13
2018-07-21T18:04:54.500Z,4.60
2018-07-21T18:07:23.384Z,4.73
2018-07-21T18:09:52.324Z,4.57
2018-07-21T18:12:21.248Z,5.00
2018-07-21T18:14:50.125Z,5.10
2018-07-21T18:17:18.959Z,5.77
2018-07-21T18:19:47.750Z,5.80
2018-07-21T18:22:16.724Z,5.07
2018-07-21T18:24:45.915Z,5.50
2018-07-21T18:27:14.905Z,5.43
2018-07-21T18:29:44.247Z,5.57
2018-07-21T18:32:13.206Z,5.60
2018-07-21T18:34:42.036Z,5.70
2018-07-21T18:37:10.895Z,4.80
2018-07-21T18:39:39.813Z,4.80
2018-07-21T18:42:08.731Z,5.10
2018-07-21T18:44:37.617Z,4.90
2018-07-21T18:47:06.573Z,4.63
2018-07-21T18:49:35.708Z,4.60
2018-07-21T18:52:05.067Z,4.50
2018-07-21T18:54:33.897Z,4.57
2018-07-21T18:57:02.745Z,4.43
2018-07-21T18:59:31.644Z,4.67
2018-07-21T19:02:00.509Z,4.20
2018-07-21T19:04:29.759Z,4.70
2018-07-21T19:06:58.611Z,4.57
2018-07-21T19:09:27.491Z,4.23
2018-07-21T19:12:02.198Z,4.27
2018-07-21T19:14:31.207Z,4.23
2018-07-21T19:17:00.090Z,4.40
2018-07-21T19:19:34.458Z,4.33
2018-07-21T19:22:03.331Z,4.67
2018-07-21T19:24:32.284Z,3.90
2018-07-21T19:27:06.699Z,4.30
2018-07-21T19:29:35.670Z,4.30
2018-07-21T19:32:10.106Z,4.23
2018-07-21T19:34:39.063Z,4.40
2018-07-21T19:37:13.766Z,4.37
2018-07-21T19:39:43.248Z,4.77
2018-07-21T19:42:12.172Z,4.30
2018-07-21T19:44:41.018Z,3.53
2018-07-21T19:47:10.235Z,4.58
2018-07-21T19:49:39.398Z,4.03
2018-07-21T19:52:08.368Z,4.43
2018-07-21T19:54:37.237Z,4.03
2018-07-21T19:57:06.292Z,3.70
2018-07-21T19:59:35.251Z,3.97
2018-07-21T20:02:04.177Z,3.40
2018-07-21T20:04:33.069Z,4.23
2018-07-21T20:07:01.910Z,3.53
2018-07-21T20:09:30.866Z,3.90
2018-07-21T20:12:00.666Z,4.00
2018-07-21T20:14:30.023Z,4.10
2018-07-21T20:16:58.995Z,3.43
2018-07-21T20:19:27.988Z,3.80
2018-07-21T20:21:56.843Z,3.47
2018-07-21T20:24:25.716Z,3.93
2018-07-21T20:26:54.672Z,3.93
2018-07-21T20:29:23.561Z,4.12
2018-07-21T20:31:52.442Z,4.37
2018-07-21T20:34:21.359Z,3.93
2018-07-21T20:36:50.303Z,4.10
2018-07-21T20:39:19.178Z,4.20
2018-07-21T20:41:48.034Z,4.00
2018-07-21T20:44:16.932Z,4.13
2018-07-21T20:46:46.037Z,4.10
2018-07-21T20:49:14.923Z,4.07
2018-07-21T20:51:43.839Z,3.73
2018-07-21T20:54:12.660Z,3.83
2018-07-21T20:56:41.833Z,4.10
2018-07-21T20:59:10.716Z,4.17
2018-07-21T21:01:39.537Z,4.27
2018-07-21T21:04:08.475Z,3.87
2018-07-21T21:06:37.386Z,4.00
2018-07-21T21:09:09.605Z,3.87
2018-07-21T21:11:38.817Z,4.50
2018-07-21T21:14:07.896Z,4.00
2018-07-21T21:16:37.096Z,4.63
2018-07-21T21:19:05.991Z,4.50
2018-07-21T21:21:34.858Z,4.23
2018-07-21T21:24:04.621Z,4.40
2018-07-21T21:26:33.957Z,4.60
2018-07-21T21:29:02.795Z,4.17
2018-07-21T21:31:31.624Z,4.27
2018-07-21T21:34:00.478Z,4.10
2018-07-21T21:36:29.317Z,4.30
2018-07-21T21:38:58.161Z,3.87
2018-07-21T21:41:27.046Z,5.00
2018-07-21T21:43:55.881Z,4.50
2018-07-21T21:46:24.723Z,4.62
2018-07-21T21:48:53.597Z,4.43
2018-07-21T21:51:22.431Z,4.50
2018-07-21T21:53:51.290Z,4.70
2018-07-21T21:56:20.140Z,4.70
2018-07-21T21:58:48.993Z,5.00
2018-07-21T22:01:17.854Z,5.50
2018-07-21T22:03:46.754Z,4.57
2018-07-21T22:06:15.635Z,4.83
2018-07-21T22:08:44.752Z,5.17
2018-07-21T22:11:13.801Z,5.47
2018-07-21T22:13:42.619Z,4.83
2018-07-21T22:16:11.743Z,5.90
2018-07-21T22:18:40.620Z,5.30
2018-07-21T22:21:09.472Z,5.10
2018-07-21T22:23:38.309Z,5.27
2018-07-21T22:26:07.168Z,4.87
2018-07-21T22:28:35.993Z,5.40
2018-07-21T22:31:05.829Z,4.70
2018-07-21T22:33:34.725Z,4.57
2018-07-21T22:36:03.588Z,4.40
2018-07-21T22:38:32.425Z,4.83
2018-07-21T22:41:01.287Z,5.10
2018-07-21T22:43:30.158Z,4.63
2018-07-21T22:45:58.913Z,4.83
2018-07-21T22:48:27.853Z,4.97
2018-07-21T22:50:56.718Z,4.47
2018-07-21T22:53:25.607Z,4.40
2018-07-21T22:55:54.525Z,4.90
2018-07-21T22:58:23.421Z,4.20
2018-07-21T23:00:52.492Z,5.00
2018-07-21T23:03:21.347Z,4.77
2018-07-21T23:05:49.991Z,4.40
2018-07-21T23:08:18.728Z,4.03
2018-07-21T23:10:47.594Z,4.10
2018-07-21T23:13:16.454Z,5.17
2018-07-21T23:15:45.284Z,4.20
2018-07-21T23:18:14.165Z,4.30
2018-07-21T23:20:42.996Z,4.63
2018-07-21T23:23:11.838Z,4.17
2018-07-21T23:25:40.682Z,4.33
2018-07-21T23:28:09.512Z,4.23
2018-07-21T23:30:38.367Z,3.53
2018-07-21T23:33:06.937Z,3.87
2018-07-21T23:35:35.891Z,4.13
2018-07-21T23:38:05.123Z,4.20
2018-07-21T23:40:34.260Z,4.50
2018-07-21T23:43:03.367Z,3.70
2018-07-21T23:45:31.942Z,4.23
2018-07-21T23:48:00.442Z,4.07
2018-07-21T23:50:28.976Z,4.00
2018-07-21T23:52:57.504Z,4.40
2018-07-21T23:55:26.051Z,3.67
2018-07-21T23:57:54.559Z,3.87
